Accueil
METAR-TAF:

METAR-TAF

Aéroports :

Bombay, Inde

latitude: 19-05-53N, longitude: 072-50-02E, altitude: 4 m

Observation

Le bulletin a été fait il y a 12 minutes, à 09:00 UTC
Vent 12 kt de ouest
Température 27°C
Humidité 94%
Pression 1000 hPa
Visibilité: 2100 m
Quelques nuages à une hauteur de 1200 ft
Nuages épars à une hauteur de 1800 ft
Quelques nuages à une hauteur de 3000 ft, Cumulonimbus.
Ciel couvert à une hauteur de 8000 ft
pluie faible

METAR: VAJJ 250900Z 26012KT 2100 -RA FEW012 SCT018 FEW030CB OVC080 27/26 Q1000 TEMPO 1500 SHRA

Heure: 14:42 (09:12 UTC)


TAF: absent

Observations et prévisions météorologiques de plus de 4000 aéroports (messages METAR et TAF).

Les stations disponibles sont représentées par des disques jaunes et rouges sur la carte.

Passer la souris dessus pour voir le nom de la station.

Cliquer dessus pour voir les observations et prévisions météorologiques.

Pour changer de carte: cliquez sur les boutons verts avec une croix noire pour zoomer, sur le bouton vert avec un tiret pour effectuer un zoom arrière, ou sur les flèches vertes pour les cartes adjacentes.


METAR-TAF: